Time;durP1;ratioP1;P1;durP2;ratioP2;P2;SDS_P1;SDS_P2;PMS_P1;PMS_P2;Temp;Humidity;BMP_temperature;BMP_pressure;BME280_temperature;BME280_humidity;BME280_pressure;Samples;Min_cycle;Max_cycle;Signal;HPM_P1;HPM_P2
2024/01/12 00:00:27;;;;;;;0.10;0.10;;;;;;;;;;5062486;28;20227;-59
2024/01/12 00:02:53;;;;;;;0.00;0.00;;;;;;;;;;5059093;28;20189;-57
2024/01/12 00:05:19;;;;;;;0.00;0.00;;;;;;;;;;5060339;28;20048;-58
2024/01/12 00:07:45;;;;;;;0.00;0.00;;;;;;;;;;5063148;28;20115;-59
2024/01/12 00:10:11;;;;;;;0.00;0.00;;;;;;;;;;5061019;28;20066;-58
2024/01/12 00:12:37;;;;;;;0.00;0.00;;;;;;;;;;5060384;28;20029;-64
2024/01/12 00:15:05;;;;;;;0.20;0.20;;;;;;;;;;5056299;28;20573;-58
2024/01/12 00:17:31;;;;;;;0.00;0.00;;;;;;;;;;5061022;28;20056;-59
2024/01/12 00:19:57;;;;;;;0.00;0.00;;;;;;;;;;5058702;28;20129;-58
2024/01/12 00:22:23;;;;;;;3.03;2.13;;;;;;;;;;5057306;28;20028;-58
2024/01/12 00:24:49;;;;;;;0.10;0.00;;;;;;;;;;5063102;28;20396;-58
2024/01/12 00:27:15;;;;;;;1.13;1.05;;;;;;;;;;5060351;28;20059;-58
2024/01/12 00:29:41;;;;;;;0.00;0.00;;;;;;;;;;5057847;28;20422;-58
2024/01/12 00:32:07;;;;;;;0.00;0.00;;;;;;;;;;5060017;28;20035;-58
2024/01/12 00:34:33;;;;;;;0.00;0.00;;;;;;;;;;5059133;28;20029;-59
2024/01/12 00:37:00;;;;;;;0.00;0.00;;;;;;;;;;5065063;28;20020;-59
2024/01/12 00:39:26;;;;;;;0.00;0.00;;;;;;;;;;5059939;28;20340;-58
2024/01/12 00:41:52;;;;;;;0.00;0.00;;;;;;;;;;5062975;28;20074;-59
2024/01/12 00:44:18;;;;;;;0.00;0.00;;;;;;;;;;5065237;28;20062;-59
2024/01/12 00:46:44;;;;;;;0.00;0.00;;;;;;;;;;5062703;28;20549;-57
2024/01/12 00:49:11;;;;;;;0.70;0.70;;;;;;;;;;5063599;28;20063;-58
2024/01/12 00:51:37;;;;;;;0.47;0.47;;;;;;;;;;5063663;28;20025;-58
2024/01/12 00:54:04;;;;;;;0.30;0.30;;;;;;;;;;5059754;28;20040;-60
2024/01/12 00:56:30;;;;;;;0.00;0.00;;;;;;;;;;5062054;28;20495;-59
2024/01/12 00:58:56;;;;;;;0.00;0.00;;;;;;;;;;5062452;28;20024;-58
2024/01/12 01:01:22;;;;;;;0.00;0.00;;;;;;;;;;5061064;28;20048;-58
2024/01/12 01:03:48;;;;;;;0.20;0.20;;;;;;;;;;5067090;28;20582;-58
2024/01/12 01:06:14;;;;;;;0.00;0.00;;;;;;;;;;5060735;28;20142;-58
2024/01/12 01:08:40;;;;;;;0.00;0.00;;;;;;;;;;5062197;28;20408;-58
2024/01/12 01:11:06;;;;;;;0.00;0.00;;;;;;;;;;5063776;28;20024;-59
2024/01/12 01:13:35;;;;;;;0.00;0.00;;;;;;;;;;5063816;28;20028;-58
2024/01/12 01:16:02;;;;;;;0.00;0.00;;;;;;;;;;5060027;28;20686;-59
2024/01/12 01:18:30;;;;;;;0.00;0.00;;;;;;;;;;5060774;28;20253;-57
2024/01/12 01:20:57;;;;;;;1.75;1.65;;;;;;;;;;5068389;28;20041;-60
2024/01/12 01:23:23;;;;;;;0.00;0.00;;;;;;;;;;5061380;28;20040;-63
2024/01/12 01:25:49;;;;;;;0.80;0.80;;;;;;;;;;5060570;28;20041;-63
2024/01/12 01:28:15;;;;;;;0.00;0.00;;;;;;;;;;5060432;28;20094;-64
2024/01/12 01:30:41;;;;;;;0.00;0.00;;;;;;;;;;5062382;28;20037;-61
2024/01/12 01:33:06;;;;;;;0.00;0.00;;;;;;;;;;5062037;28;20052;-64
2024/01/12 01:35:33;;;;;;;0.00;0.00;;;;;;;;;;5063563;28;20047;-63
2024/01/12 01:37:59;;;;;;;0.13;0.13;;;;;;;;;;5063435;28;20437;-61
2024/01/12 01:40:25;;;;;;;0.00;0.00;;;;;;;;;;5066657;28;20179;-64
2024/01/12 01:42:50;;;;;;;0.00;0.00;;;;;;;;;;5061037;28;20028;-63
2024/01/12 01:45:16;;;;;;;0.00;0.00;;;;;;;;;;5057671;28;20048;-62
2024/01/12 01:47:43;;;;;;;0.00;0.00;;;;;;;;;;5061784;28;20500;-64
2024/01/12 01:50:10;;;;;;;0.00;0.00;;;;;;;;;;5061256;28;20047;-63
2024/01/12 01:52:36;;;;;;;0.00;0.00;;;;;;;;;;5061783;28;20033;-64
2024/01/12 01:55:02;;;;;;;0.00;0.00;;;;;;;;;;5059310;28;20044;-64
2024/01/12 01:57:29;;;;;;;0.00;0.00;;;;;;;;;;5061490;28;20075;-62
2024/01/12 01:59:58;;;;;;;3.03;1.02;;;;;;;;;;5064691;28;20466;-63
2024/01/12 02:02:24;;;;;;;0.00;0.00;;;;;;;;;;5058964;28;20485;-63
2024/01/12 02:04:51;;;;;;;0.00;0.00;;;;;;;;;;5064821;28;20119;-62
2024/01/12 02:07:17;;;;;;;0.00;0.00;;;;;;;;;;5061153;28;20035;-63
2024/01/12 02:09:43;;;;;;;0.10;0.10;;;;;;;;;;5062883;28;20434;-60
2024/01/12 02:12:09;;;;;;;0.10;0.10;;;;;;;;;;5062036;28;20101;-63
2024/01/12 02:14:35;;;;;;;0.15;0.15;;;;;;;;;;5064197;28;20044;-58
2024/01/12 02:17:01;;;;;;;0.00;0.00;;;;;;;;;;5063563;28;20048;-59
2024/01/12 02:19:27;;;;;;;0.00;0.00;;;;;;;;;;5060903;28;20464;-58
2024/01/12 02:21:53;;;;;;;0.00;0.00;;;;;;;;;;5062358;28;20086;-58
2024/01/12 02:24:19;;;;;;;0.20;0.20;;;;;;;;;;5064564;28;20475;-59
2024/01/12 02:26:45;;;;;;;0.00;0.00;;;;;;;;;;5062177;28;20032;-59
2024/01/12 02:29:11;;;;;;;0.10;0.10;;;;;;;;;;5056351;28;20032;-59
2024/01/12 02:31:37;;;;;;;0.00;0.00;;;;;;;;;;5063776;28;20028;-58
2024/01/12 02:34:03;;;;;;;2.40;0.80;;;;;;;;;;5063707;28;20032;-61
2024/01/12 02:36:30;;;;;;;0.00;0.00;;;;;;;;;;5067128;28;20446;-61
2024/01/12 02:38:56;;;;;;;3.08;2.92;;;;;;;;;;5064253;28;20316;-62
2024/01/12 02:41:22;;;;;;;0.20;0.20;;;;;;;;;;5058510;28;20056;-64
2024/01/12 02:43:48;;;;;;;0.00;0.00;;;;;;;;;;5061828;28;20036;-61
2024/01/12 02:46:14;;;;;;;0.00;0.00;;;;;;;;;;5065646;28;20044;-63
2024/01/12 02:48:40;;;;;;;0.00;0.00;;;;;;;;;;5065805;28;20051;-64
2024/01/12 02:51:06;;;;;;;0.00;0.00;;;;;;;;;;5059484;28;20036;-62
2024/01/12 02:53:32;;;;;;;0.00;0.00;;;;;;;;;;5061643;28;20347;-63
2024/01/12 02:55:59;;;;;;;4.30;4.07;;;;;;;;;;5060629;28;20039;-64
2024/01/12 02:58:25;;;;;;;0.00;0.00;;;;;;;;;;5062753;28;21427;-64
2024/01/12 03:00:52;;;;;;;0.00;0.00;;;;;;;;;;5059517;28;20433;-64
2024/01/12 03:03:18;;;;;;;0.20;0.20;;;;;;;;;;5058572;28;20547;-63
2024/01/12 03:05:44;;;;;;;1.45;1.35;;;;;;;;;;5058629;28;20036;-61
2024/01/12 03:08:10;;;;;;;0.00;0.00;;;;;;;;;;5055476;28;20063;-63
2024/01/12 03:10:37;;;;;;;0.05;0.05;;;;;;;;;;5064565;28;20492;-64
2024/01/12 03:13:03;;;;;;;0.00;0.00;;;;;;;;;;5059061;28;20518;-64
2024/01/12 03:15:29;;;;;;;0.00;0.00;;;;;;;;;;5065071;28;20288;-64
2024/01/12 03:17:56;;;;;;;0.15;0.15;;;;;;;;;;5062640;28;20442;-62
2024/01/12 03:20:22;;;;;;;0.90;0.80;;;;;;;;;;5060621;28;20372;-64
2024/01/12 03:22:48;;;;;;;0.00;0.00;;;;;;;;;;5057888;28;20503;-64
2024/01/12 03:25:14;;;;;;;0.00;0.00;;;;;;;;;;5060924;28;20036;-63
2024/01/12 03:27:40;;;;;;;0.00;0.00;;;;;;;;;;5059037;28;20464;-64
2024/01/12 03:30:06;;;;;;;6.30;3.00;;;;;;;;;;5062854;28;20031;-61
2024/01/12 03:32:35;;;;;;;0.00;0.00;;;;;;;;;;5062419;28;20496;-64
2024/01/12 03:35:03;;;;;;;0.17;0.17;;;;;;;;;;5063581;28;20332;-63
2024/01/12 03:37:29;;;;;;;3.20;2.90;;;;;;;;;;5060767;28;20052;-63
2024/01/12 03:39:55;;;;;;;0.03;0.03;;;;;;;;;;5065659;28;20063;-62
2024/01/12 03:42:21;;;;;;;0.55;0.55;;;;;;;;;;5060029;28;20125;-63
2024/01/12 03:44:47;;;;;;;3.63;3.40;;;;;;;;;;5061786;28;20029;-64
2024/01/12 03:47:13;;;;;;;0.45;0.45;;;;;;;;;;5060885;28;20028;-62
2024/01/12 03:49:39;;;;;;;0.10;0.10;;;;;;;;;;5066499;28;20048;-63
2024/01/12 03:52:05;;;;;;;0.00;0.00;;;;;;;;;;5058964;28;21015;-64
2024/01/12 03:54:31;;;;;;;2.08;1.55;;;;;;;;;;5061613;28;20036;-62
2024/01/12 03:56:57;;;;;;;0.00;0.00;;;;;;;;;;5064445;28;20369;-62
2024/01/12 03:59:24;;;;;;;1.23;1.17;;;;;;;;;;5061923;28;20794;-62
2024/01/12 04:01:50;;;;;;;0.00;0.00;;;;;;;;;;5060498;28;20032;-64
2024/01/12 04:04:16;;;;;;;0.00;0.00;;;;;;;;;;5062952;28;20134;-64
2024/01/12 04:06:42;;;;;;;0.00;0.00;;;;;;;;;;5067866;28;20040;-63
2024/01/12 04:09:12;;;;;;;0.00;0.00;;;;;;;;;;5062408;28;20045;-63
2024/01/12 04:11:39;;;;;;;0.00;0.00;;;;;;;;;;5065668;28;20036;-63
2024/01/12 04:14:05;;;;;;;0.00;0.00;;;;;;;;;;5065469;28;20598;-64
2024/01/12 04:16:31;;;;;;;0.00;0.00;;;;;;;;;;5064400;28;20119;-64
2024/01/12 04:18:57;;;;;;;0.00;0.00;;;;;;;;;;5064837;28;20443;-62
2024/01/12 04:21:23;;;;;;;0.00;0.00;;;;;;;;;;5064791;28;20416;-64
2024/01/12 04:23:49;;;;;;;1.30;1.20;;;;;;;;;;5062834;28;20037;-62
2024/01/12 04:26:15;;;;;;;1.75;1.65;;;;;;;;;;5046990;28;20383;-63
2024/01/12 04:28:41;;;;;;;0.10;0.10;;;;;;;;;;5066756;28;20029;-64
2024/01/12 04:31:07;;;;;;;0.13;0.13;;;;;;;;;;5062060;28;20422;-62
2024/01/12 04:33:34;;;;;;;0.00;0.00;;;;;;;;;;5067820;28;20047;-63
2024/01/12 04:36:00;;;;;;;2.92;1.40;;;;;;;;;;5065430;28;20612;-64
2024/01/12 04:38:26;;;;;;;0.40;0.08;;;;;;;;;;5066502;28;20033;-64
2024/01/12 04:40:53;;;;;;;0.55;0.55;;;;;;;;;;5063025;28;20347;-64
2024/01/12 04:43:19;;;;;;;0.90;0.88;;;;;;;;;;5061360;28;20552;-64
2024/01/12 04:45:45;;;;;;;2.28;1.45;;;;;;;;;;5064989;28;20046;-64
2024/01/12 04:48:11;;;;;;;0.00;0.00;;;;;;;;;;5066662;28;20496;-64
2024/01/12 04:50:37;;;;;;;0.00;0.00;;;;;;;;;;5064961;28;20124;-64
2024/01/12 04:53:03;;;;;;;0.00;0.00;;;;;;;;;;5061041;28;20043;-62
2024/01/12 04:55:29;;;;;;;0.00;0.00;;;;;;;;;;5064259;28;20036;-64
2024/01/12 04:57:54;;;;;;;0.10;0.10;;;;;;;;;;5063965;28;20062;-63
2024/01/12 05:00:21;;;;;;;3.10;1.98;;;;;;;;;;5064475;28;20037;-63
2024/01/12 05:02:46;;;;;;;0.22;0.22;;;;;;;;;;5068139;28;20039;-64
2024/01/12 05:05:13;;;;;;;0.00;0.00;;;;;;;;;;5065714;28;20032;-65
2024/01/12 05:07:39;;;;;;;0.00;0.00;;;;;;;;;;5063514;28;20683;-64
2024/01/12 05:10:05;;;;;;;0.00;0.00;;;;;;;;;;5042915;28;21128;-64
2024/01/12 05:12:31;;;;;;;0.00;0.00;;;;;;;;;;5061680;28;20512;-64
2024/01/12 05:14:57;;;;;;;0.00;0.00;;;;;;;;;;5064716;28;20051;-64
2024/01/12 05:17:23;;;;;;;0.00;0.00;;;;;;;;;;5063787;28;20055;-64
2024/01/12 05:19:49;;;;;;;0.00;0.00;;;;;;;;;;5058090;28;20455;-63
2024/01/12 05:22:16;;;;;;;0.00;0.00;;;;;;;;;;5068353;28;20040;-64
2024/01/12 05:24:42;;;;;;;0.00;0.00;;;;;;;;;;5067831;28;20028;-63
2024/01/12 05:27:08;;;;;;;0.00;0.00;;;;;;;;;;5062374;28;20067;-65
2024/01/12 05:29:34;;;;;;;0.28;0.28;;;;;;;;;;5054284;28;20113;-62
2024/01/12 05:32:01;;;;;;;0.00;0.00;;;;;;;;;;5064491;28;20037;-64
2024/01/12 05:34:27;;;;;;;0.82;0.82;;;;;;;;;;5061283;28;20062;-64
2024/01/12 05:36:53;;;;;;;0.75;0.75;;;;;;;;;;5063243;28;20045;-64
2024/01/12 05:39:19;;;;;;;0.00;0.00;;;;;;;;;;5067582;28;20035;-64
2024/01/12 05:41:45;;;;;;;0.35;0.35;;;;;;;;;;5061009;28;20071;-63
2024/01/12 05:44:11;;;;;;;0.65;0.65;;;;;;;;;;5061441;28;20036;-60
2024/01/12 05:46:37;;;;;;;0.10;0.10;;;;;;;;;;5068969;28;20036;-59
2024/01/12 05:49:04;;;;;;;1.40;1.30;;;;;;;;;;5066751;28;20094;-59
2024/01/12 05:51:30;;;;;;;0.50;0.50;;;;;;;;;;5059627;28;20047;-59
2024/01/12 05:53:56;;;;;;;0.22;0.22;;;;;;;;;;5066204;28;20032;-59
2024/01/12 05:56:23;;;;;;;0.13;0.13;;;;;;;;;;5067924;28;20050;-59
2024/01/12 05:58:50;;;;;;;0.30;0.30;;;;;;;;;;5063375;28;20028;-60
2024/01/12 06:01:16;;;;;;;0.00;0.00;;;;;;;;;;5065344;28;20044;-60
2024/01/12 06:03:42;;;;;;;0.00;0.00;;;;;;;;;;5060222;28;20098;-63
2024/01/12 06:06:08;;;;;;;0.10;0.10;;;;;;;;;;5055311;28;20097;-64
2024/01/12 06:08:34;;;;;;;4.18;2.92;;;;;;;;;;5062423;28;20037;-64
2024/01/12 06:11:00;;;;;;;0.45;0.45;;;;;;;;;;5062431;28;20462;-64
2024/01/12 06:13:26;;;;;;;0.20;0.20;;;;;;;;;;5047509;28;20067;-64
2024/01/12 06:15:52;;;;;;;0.98;0.98;;;;;;;;;;5064352;28;20061;-64
2024/01/12 06:18:18;;;;;;;4.95;1.45;;;;;;;;;;5061066;28;20051;-64
2024/01/12 06:20:44;;;;;;;2.05;1.95;;;;;;;;;;5048412;28;20120;-64
2024/01/12 06:23:10;;;;;;;0.00;0.00;;;;;;;;;;5060013;28;20097;-62
2024/01/12 06:25:37;;;;;;;2.92;2.20;;;;;;;;;;5067091;28;20412;-62
2024/01/12 06:28:04;;;;;;;0.10;0.10;;;;;;;;;;5058571;28;20040;-64
2024/01/12 06:30:31;;;;;;;4.07;2.85;;;;;;;;;;5056572;28;20036;-64
2024/01/12 06:32:57;;;;;;;2.72;2.53;;;;;;;;;;5060880;28;20516;-63
2024/01/12 06:35:23;;;;;;;2.55;0.57;;;;;;;;;;5063392;28;20032;-64
2024/01/12 06:37:49;;;;;;;0.00;0.00;;;;;;;;;;5062049;28;20590;-62
2024/01/12 06:40:15;;;;;;;0.00;0.00;;;;;;;;;;5065582;28;20202;-63
2024/01/12 06:42:41;;;;;;;0.00;0.00;;;;;;;;;;5058779;28;20119;-62
2024/01/12 06:45:09;;;;;;;0.00;0.00;;;;;;;;;;5044092;28;20047;-64
2024/01/12 06:47:35;;;;;;;0.00;0.00;;;;;;;;;;5067918;28;20517;-64
2024/01/12 06:50:01;;;;;;;0.10;0.10;;;;;;;;;;5063309;28;20036;-63
2024/01/12 06:52:29;;;;;;;0.00;0.00;;;;;;;;;;5062553;28;20064;-64
2024/01/12 06:54:55;;;;;;;0.00;0.00;;;;;;;;;;5068026;28;20028;-64
2024/01/12 06:57:21;;;;;;;0.00;0.00;;;;;;;;;;5057970;28;20048;-64
2024/01/12 06:59:47;;;;;;;0.10;0.10;;;;;;;;;;5061644;28;20508;-64
2024/01/12 07:02:14;;;;;;;3.13;2.83;;;;;;;;;;5059705;28;20048;-64
2024/01/12 07:04:40;;;;;;;0.00;0.00;;;;;;;;;;5055982;28;20044;-64
2024/01/12 07:07:06;;;;;;;0.10;0.10;;;;;;;;;;5056679;28;20427;-64
2024/01/12 07:09:32;;;;;;;0.00;0.00;;;;;;;;;;5059540;28;20033;-64
2024/01/12 07:11:58;;;;;;;0.00;0.00;;;;;;;;;;5058434;28;20036;-64
2024/01/12 07:14:24;;;;;;;0.00;0.00;;;;;;;;;;5063049;28;20020;-62
2024/01/12 07:16:50;;;;;;;0.00;0.00;;;;;;;;;;5057265;28;20036;-64
2024/01/12 07:19:16;;;;;;;0.00;0.00;;;;;;;;;;5060313;28;20036;-64
2024/01/12 07:21:42;;;;;;;0.00;0.00;;;;;;;;;;5064267;28;20037;-64
2024/01/12 07:24:08;;;;;;;0.00;0.00;;;;;;;;;;5057619;28;20093;-60
2024/01/12 07:26:34;;;;;;;0.00;0.00;;;;;;;;;;5058489;28;20041;-59
2024/01/12 07:29:01;;;;;;;0.45;0.45;;;;;;;;;;5055811;28;20040;-60
2024/01/12 07:31:27;;;;;;;0.00;0.00;;;;;;;;;;5058288;28;20803;-60
2024/01/12 07:33:53;;;;;;;0.00;0.00;;;;;;;;;;5060256;28;20060;-60
2024/01/12 07:36:18;;;;;;;0.05;0.05;;;;;;;;;;5059375;28;20285;-60
2024/01/12 07:38:45;;;;;;;0.00;0.00;;;;;;;;;;5060674;28;20345;-60
2024/01/12 07:41:10;;;;;;;0.20;0.20;;;;;;;;;;5060009;28;20043;-61
2024/01/12 07:43:36;;;;;;;0.13;0.13;;;;;;;;;;5059219;28;20508;-59
2024/01/12 07:46:02;;;;;;;4.57;2.85;;;;;;;;;;5051892;28;20446;-59
2024/01/12 07:48:28;;;;;;;0.00;0.00;;;;;;;;;;5058313;28;20779;-59
2024/01/12 07:50:54;;;;;;;0.00;0.00;;;;;;;;;;5060543;28;20253;-61
2024/01/12 07:53:20;;;;;;;0.00;0.00;;;;;;;;;;5057748;28;20511;-59
2024/01/12 07:55:47;;;;;;;0.00;0.00;;;;;;;;;;5059509;28;20396;-59
2024/01/12 07:58:13;;;;;;;0.40;0.40;;;;;;;;;;5041227;28;20032;-60
2024/01/12 08:00:39;;;;;;;0.00;0.00;;;;;;;;;;5059613;28;20090;-59
2024/01/12 08:03:05;;;;;;;0.00;0.00;;;;;;;;;;5057936;28;20430;-60
2024/01/12 08:05:31;;;;;;;1.60;1.55;;;;;;;;;;5060977;28;20079;-59
2024/01/12 08:07:57;;;;;;;0.00;0.00;;;;;;;;;;5057122;28;20143;-60
2024/01/12 08:10:23;;;;;;;9.20;3.83;;;;;;;;;;5058190;28;20116;-60
2024/01/12 08:12:49;;;;;;;6.30;3.05;;;;;;;;;;5034082;28;20589;-59
2024/01/12 08:15:15;;;;;;;0.30;0.30;;;;;;;;;;5055432;28;20722;-60
2024/01/12 08:17:41;;;;;;;0.90;0.40;;;;;;;;;;5057609;28;20055;-60
2024/01/12 08:20:07;;;;;;;2.92;2.25;;;;;;;;;;5043024;28;20448;-60
2024/01/12 08:22:34;;;;;;;0.98;0.68;;;;;;;;;;5061720;28;20038;-59
2024/01/12 08:25:00;;;;;;;0.20;0.20;;;;;;;;;;5062072;28;20177;-59
2024/01/12 08:27:26;;;;;;;0.00;0.00;;;;;;;;;;5060912;28;20432;-59
2024/01/12 08:29:52;;;;;;;6.18;5.57;;;;;;;;;;5063619;28;20512;-60
2024/01/12 08:32:18;;;;;;;0.00;0.00;;;;;;;;;;5058804;28;20033;-59
2024/01/12 08:34:44;;;;;;;0.03;0.03;;;;;;;;;;5053612;28;20069;-60
2024/01/12 08:37:10;;;;;;;20.63;7.95;;;;;;;;;;5061103;28;20437;-60
2024/01/12 08:39:36;;;;;;;0.00;0.00;;;;;;;;;;5057632;28;20033;-59
2024/01/12 08:42:02;;;;;;;0.15;0.15;;;;;;;;;;5040587;28;20036;-60
2024/01/12 08:44:28;;;;;;;0.00;0.00;;;;;;;;;;5057280;28;20119;-60
2024/01/12 08:46:54;;;;;;;0.00;0.00;;;;;;;;;;5059807;28;20551;-59
2024/01/12 08:49:21;;;;;;;0.00;0.00;;;;;;;;;;5065346;28;20404;-60
2024/01/12 08:51:48;;;;;;;0.95;0.90;;;;;;;;;;5058454;28;20100;-61
2024/01/12 08:54:14;;;;;;;0.00;0.00;;;;;;;;;;5058543;28;20048;-59
2024/01/12 08:56:40;;;;;;;0.63;0.63;;;;;;;;;;5062780;28;20498;-59
2024/01/12 08:59:06;;;;;;;2.25;2.15;;;;;;;;;;5064677;28;20067;-59
2024/01/12 09:01:32;;;;;;;1.75;1.65;;;;;;;;;;5064517;28;20064;-61
2024/01/12 09:03:59;;;;;;;0.30;0.30;;;;;;;;;;5069087;28;20095;-60
2024/01/12 09:06:25;;;;;;;0.17;0.17;;;;;;;;;;5051742;28;20359;-60
2024/01/12 09:08:51;;;;;;;0.95;0.90;;;;;;;;;;5064708;28;20032;-61
2024/01/12 09:11:17;;;;;;;1.50;0.75;;;;;;;;;;5067161;28;20040;-60
2024/01/12 09:13:43;;;;;;;0.00;0.00;;;;;;;;;;5045128;28;20043;-60
2024/01/12 09:16:10;;;;;;;10.00;1.60;;;;;;;;;;5064854;28;20200;-60
2024/01/12 09:18:36;;;;;;;0.00;0.00;;;;;;;;;;5059018;28;20063;-61
2024/01/12 09:21:02;;;;;;;1.85;1.20;;;;;;;;;;5044125;28;20064;-61
2024/01/12 09:23:28;;;;;;;1.13;1.08;;;;;;;;;;5061066;28;20503;-60
2024/01/12 09:25:54;;;;;;;0.00;0.00;;;;;;;;;;5062820;28;20033;-61
2024/01/12 09:28:20;;;;;;;0.10;0.10;;;;;;;;;;5060851;28;20038;-61
2024/01/12 09:30:47;;;;;;;7.38;4.70;;;;;;;;;;5059802;28;20032;-59
2024/01/12 09:33:13;;;;;;;0.10;0.10;;;;;;;;;;5055213;28;20135;-59
2024/01/12 09:35:39;;;;;;;0.00;0.00;;;;;;;;;;5053090;28;20058;-60
2024/01/12 09:38:05;;;;;;;0.00;0.00;;;;;;;;;;5067355;28;20438;-61
2024/01/12 09:40:32;;;;;;;0.00;0.00;;;;;;;;;;5062492;28;20467;-60
2024/01/12 09:43:00;;;;;;;0.00;0.00;;;;;;;;;;5063305;28;20047;-59
2024/01/12 09:45:26;;;;;;;0.00;0.00;;;;;;;;;;5063376;28;20379;-60
2024/01/12 09:47:52;;;;;;;0.00;0.00;;;;;;;;;;5068221;28;20113;-59
2024/01/12 09:50:22;;;;;;;0.00;0.00;;;;;;;;;;5065488;28;20093;-59
2024/01/12 09:52:51;;;;;;;0.40;0.40;;;;;;;;;;5062364;28;20476;-59
2024/01/12 09:55:17;;;;;;;0.00;0.00;;;;;;;;;;5060013;28;20028;-60
2024/01/12 09:57:46;;;;;;;1.15;1.15;;;;;;;;;;5055102;28;20032;-59
2024/01/12 10:00:14;;;;;;;0.00;0.00;;;;;;;;;;5056673;28;20541;-59
2024/01/12 10:02:40;;;;;;;0.00;0.00;;;;;;;;;;5063159;28;20036;-63
2024/01/12 10:05:09;;;;;;;0.00;0.00;;;;;;;;;;5055210;28;20078;-62
2024/01/12 10:07:35;;;;;;;0.43;0.43;;;;;;;;;;5055277;28;20043;-63
2024/01/12 10:10:01;;;;;;;0.00;0.00;;;;;;;;;;5056463;28;20029;-63
2024/01/12 10:12:27;;;;;;;0.00;0.00;;;;;;;;;;5041006;28;20028;-63
2024/01/12 10:15:03;;;;;;;0.00;0.00;;;;;;;;;;5065881;28;20025;-63
2024/01/12 10:17:30;;;;;;;0.00;0.00;;;;;;;;;;5061904;28;20048;-63
2024/01/12 10:19:56;;;;;;;0.00;0.00;;;;;;;;;;5064802;28;20436;-62
2024/01/12 10:22:22;;;;;;;0.00;0.00;;;;;;;;;;5064688;28;20534;-62
2024/01/12 10:25:01;;;;;;;1.50;1.35;;;;;;;;;;5066298;28;20051;-63
2024/01/12 10:27:27;;;;;;;0.65;0.65;;;;;;;;;;5055006;28;20391;-62
2024/01/12 10:29:54;;;;;;;0.65;0.65;;;;;;;;;;5063754;28;20028;-61
2024/01/12 10:32:20;;;;;;;0.03;0.03;;;;;;;;;;5059500;28;20512;-63
2024/01/12 10:34:50;;;;;;;0.00;0.00;;;;;;;;;;5059858;28;20036;-63
2024/01/12 10:37:16;;;;;;;0.00;0.00;;;;;;;;;;5063896;28;20044;-63
2024/01/12 10:39:44;;;;;;;0.00;0.00;;;;;;;;;;5061385;28;20091;-63
2024/01/12 10:42:12;;;;;;;0.00;0.00;;;;;;;;;;5062185;28;20054;-66
2024/01/12 10:44:41;;;;;;;0.22;0.22;;;;;;;;;;5061705;28;20300;-64
2024/01/12 10:47:15;;;;;;;0.17;0.17;;;;;;;;;;5062782;28;20048;-65
2024/01/12 10:49:48;;;;;;;0.75;0.63;;;;;;;;;;5062126;28;20028;-65
2024/01/12 10:52:33;;;;;;;0.22;0.22;;;;;;;;;;5056350;28;20036;-66
2024/01/12 10:55:02;;;;;;;0.00;0.00;;;;;;;;;;5060078;28;20565;-65
2024/01/12 10:57:30;;;;;;;0.03;0.03;;;;;;;;;;5000844;28;20029;-65
2024/01/12 10:59:57;;;;;;;0.00;0.00;;;;;;;;;;5061286;28;20584;-64
2024/01/12 11:02:23;;;;;;;0.00;0.00;;;;;;;;;;5061846;28;20044;-65
2024/01/12 11:04:49;;;;;;;0.15;0.15;;;;;;;;;;5059687;28;20033;-66
2024/01/12 11:07:15;;;;;;;0.95;0.70;;;;;;;;;;5059317;28;20040;-65
2024/01/12 11:09:41;;;;;;;3.30;3.10;;;;;;;;;;5061825;28;20395;-65
2024/01/12 11:12:13;;;;;;;0.00;0.00;;;;;;;;;;5065485;28;20051;-66
2024/01/12 11:14:40;;;;;;;1.00;0.90;;;;;;;;;;5058691;28;20028;-61
2024/01/12 11:17:06;;;;;;;1.25;0.60;;;;;;;;;;5062272;28;20328;-61
2024/01/12 11:19:32;;;;;;;0.00;0.00;;;;;;;;;;5052046;28;20495;-61
2024/01/12 11:22:17;;;;;;;1.23;0.95;;;;;;;;;;5060244;28;20542;-61
2024/01/12 11:24:43;;;;;;;0.52;0.52;;;;;;;;;;5057524;28;20040;-62
2024/01/12 11:27:12;;;;;;;3.40;1.95;;;;;;;;;;5059782;28;20117;-62
2024/01/12 11:29:39;;;;;;;0.00;0.00;;;;;;;;;;5060047;28;20043;-61
2024/01/12 11:32:06;;;;;;;0.10;0.10;;;;;;;;;;5060468;28;20072;-62
2024/01/12 11:34:36;;;;;;;1.85;1.75;;;;;;;;;;5059479;28;20047;-67
2024/01/12 11:37:02;;;;;;;0.00;0.00;;;;;;;;;;5063783;28;20401;-67
2024/01/12 11:39:36;;;;;;;0.10;0.10;;;;;;;;;;5059312;28;20597;-66
2024/01/12 11:42:03;;;;;;;3.85;2.08;;;;;;;;;;5058045;28;20338;-67
2024/01/12 11:44:29;;;;;;;0.00;0.00;;;;;;;;;;5052611;28;20493;-66
2024/01/12 11:46:56;;;;;;;0.10;0.10;;;;;;;;;;5057476;28;20055;-67
2024/01/12 11:49:23;;;;;;;0.00;0.00;;;;;;;;;;5057570;28;20056;-67
2024/01/12 11:51:49;;;;;;;0.10;0.10;;;;;;;;;;5059879;28;20511;-66
2024/01/12 11:54:15;;;;;;;0.00;0.00;;;;;;;;;;5054580;28;20055;-66
2024/01/12 11:56:42;;;;;;;0.00;0.00;;;;;;;;;;5058916;28;20440;-66
2024/01/12 11:59:08;;;;;;;0.22;0.22;;;;;;;;;;5059161;28;20111;-67
2024/01/12 12:01:34;;;;;;;0.45;0.45;;;;;;;;;;5057750;28;20047;-66
2024/01/12 12:04:01;;;;;;;1.27;1.17;;;;;;;;;;5041633;28;20396;-63
2024/01/12 12:06:27;;;;;;;0.00;0.00;;;;;;;;;;5065451;28;20374;-61
2024/01/12 12:08:55;;;;;;;0.03;0.03;;;;;;;;;;5055099;28;20489;-60
2024/01/12 12:11:21;;;;;;;0.10;0.10;;;;;;;;;;5058145;28;20068;-61
2024/01/12 12:13:48;;;;;;;4.30;1.75;;;;;;;;;;5055647;28;20580;-60
2024/01/12 12:16:14;;;;;;;0.00;0.00;;;;;;;;;;5058929;28;20040;-62
2024/01/12 12:18:40;;;;;;;0.00;0.00;;;;;;;;;;5060767;28;20120;-61
2024/01/12 12:21:06;;;;;;;0.10;0.10;;;;;;;;;;5059613;28;20124;-60
2024/01/12 12:23:32;;;;;;;0.00;0.00;;;;;;;;;;5058162;28;20044;-66
2024/01/12 12:26:00;;;;;;;0.40;0.40;;;;;;;;;;5051993;28;20037;-66
2024/01/12 12:28:26;;;;;;;0.00;0.00;;;;;;;;;;5056595;28;20033;-65
2024/01/12 12:30:53;;;;;;;0.00;0.00;;;;;;;;;;5068261;28;20408;-65
2024/01/12 12:33:23;;;;;;;0.40;0.40;;;;;;;;;;5064704;28;20052;-65
2024/01/12 12:35:51;;;;;;;1.90;0.95;;;;;;;;;;5062800;28;20059;-66
2024/01/12 12:38:17;;;;;;;0.68;0.50;;;;;;;;;;5068423;28;20068;-65
2024/01/12 12:40:47;;;;;;;0.00;0.00;;;;;;;;;;5063034;28;20354;-64
2024/01/12 12:43:15;;;;;;;0.30;0.30;;;;;;;;;;5067263;28;20094;-61
2024/01/12 12:45:41;;;;;;;0.22;0.22;;;;;;;;;;5066445;28;20434;-61
2024/01/12 12:48:09;;;;;;;0.10;0.10;;;;;;;;;;5065464;28;20089;-60
2024/01/12 12:50:36;;;;;;;0.00;0.00;;;;;;;;;;5072716;28;20546;-61
2024/01/12 12:53:02;;;;;;;0.00;0.00;;;;;;;;;;5060355;28;20342;-60
2024/01/12 12:55:28;;;;;;;0.00;0.00;;;;;;;;;;5065998;28;20040;-61
2024/01/12 12:57:55;;;;;;;2.13;1.45;;;;;;;;;;5061842;28;20041;-62
2024/01/12 13:00:21;;;;;;;3.75;2.20;;;;;;;;;;5063634;28;20526;-61
2024/01/12 13:02:47;;;;;;;0.00;0.00;;;;;;;;;;5061031;28;20036;-63
2024/01/12 13:05:15;;;;;;;0.00;0.00;;;;;;;;;;5062804;28;20060;-60
2024/01/12 13:07:41;;;;;;;0.10;0.10;;;;;;;;;;5069542;28;20540;-60
2024/01/12 13:10:07;;;;;;;1.13;1.10;;;;;;;;;;5068107;28;20112;-60
2024/01/12 13:12:33;;;;;;;0.00;0.00;;;;;;;;;;5065335;28;20041;-60
2024/01/12 13:14:59;;;;;;;0.00;0.00;;;;;;;;;;5064514;28;20146;-62
2024/01/12 13:17:26;;;;;;;0.00;0.00;;;;;;;;;;5059560;28;20032;-62
2024/01/12 13:19:52;;;;;;;0.10;0.10;;;;;;;;;;5063257;28;20055;-60
2024/01/12 13:22:18;;;;;;;0.00;0.00;;;;;;;;;;5058149;28;20052;-59
2024/01/12 13:24:44;;;;;;;0.10;0.10;;;;;;;;;;5063209;28;20037;-65
2024/01/12 13:27:10;;;;;;;2.20;0.73;;;;;;;;;;5061175;28;20041;-64
2024/01/12 13:29:36;;;;;;;0.03;0.03;;;;;;;;;;5059076;28;20456;-64
2024/01/12 13:32:02;;;;;;;1.00;1.00;;;;;;;;;;5056154;28;20029;-64
2024/01/12 13:34:28;;;;;;;1.55;0.45;;;;;;;;;;5062580;28;20037;-62
2024/01/12 13:37:00;;;;;;;0.30;0.30;;;;;;;;;;5041658;28;20043;-62
2024/01/12 13:39:26;;;;;;;0.00;0.00;;;;;;;;;;5058317;28;20510;-60
2024/01/12 13:41:52;;;;;;;0.13;0.13;;;;;;;;;;5047431;28;20041;-60
2024/01/12 13:44:18;;;;;;;0.00;0.00;;;;;;;;;;5064290;28;20101;-59
2024/01/12 13:46:44;;;;;;;0.93;0.93;;;;;;;;;;5063942;28;20120;-61
2024/01/12 13:49:10;;;;;;;1.45;0.80;;;;;;;;;;5058741;28;20135;-61
2024/01/12 13:51:36;;;;;;;0.00;0.00;;;;;;;;;;5062354;28;20442;-60
2024/01/12 13:54:05;;;;;;;0.10;0.10;;;;;;;;;;5062466;28;20040;-64
2024/01/12 13:56:31;;;;;;;17.65;1.42;;;;;;;;;;5063779;28;20086;-65
2024/01/12 13:58:57;;;;;;;0.00;0.00;;;;;;;;;;5063317;28;20477;-64
2024/01/12 14:01:24;;;;;;;0.00;0.00;;;;;;;;;;5061116;28;20039;-65
2024/01/12 14:03:50;;;;;;;1.75;1.08;;;;;;;;;;5063262;28;20460;-64
2024/01/12 14:06:16;;;;;;;0.40;0.40;;;;;;;;;;5068705;28;20040;-65
2024/01/12 14:08:43;;;;;;;0.00;0.00;;;;;;;;;;5063677;28;20590;-65
2024/01/12 14:11:11;;;;;;;0.00;0.00;;;;;;;;;;5063456;28;20118;-65
2024/01/12 14:13:37;;;;;;;0.15;0.15;;;;;;;;;;5061178;28;20559;-65
2024/01/12 14:16:03;;;;;;;0.00;0.00;;;;;;;;;;5060872;28;20041;-65
2024/01/12 14:18:29;;;;;;;0.93;0.88;;;;;;;;;;5061924;28;20098;-64
2024/01/12 14:20:56;;;;;;;0.00;0.00;;;;;;;;;;5058948;28;20041;-64
2024/01/12 14:23:22;;;;;;;0.28;0.20;;;;;;;;;;5064356;28;20060;-64
2024/01/12 14:25:48;;;;;;;3.17;2.90;;;;;;;;;;5062055;28;20431;-65
2024/01/12 14:28:15;;;;;;;0.20;0.20;;;;;;;;;;5063071;28;20526;-65
2024/01/12 14:30:41;;;;;;;0.00;0.00;;;;;;;;;;5063777;28;20535;-65
2024/01/12 14:33:07;;;;;;;0.00;0.00;;;;;;;;;;5070615;28;20028;-64
2024/01/12 14:35:34;;;;;;;1.75;0.95;;;;;;;;;;5058132;28;20071;-65
2024/01/12 14:38:00;;;;;;;0.57;0.57;;;;;;;;;;5058686;28;20555;-65